Time;durP1;ratioP1;P1;durP2;ratioP2;P2;SDS_P1;SDS_P2;PMS_P1;PMS_P2;Temp;Humidity;BMP_temperature;BMP_pressure;BME280_temperature;BME280_humidity;BME280_pressure;Samples;Min_cycle;Max_cycle;Signal;HPM_P1;HPM_P2
2023/01/21 00:02:11;;;;;;;10.30;5.22;;;-2.00;99.90;;;;;;4972852;28;20089;-73
2023/01/21 00:04:43;;;;;;;11.13;5.60;;;-2.00;99.90;;;;;;4992463;28;20112;-73
2023/01/21 00:07:11;;;;;;;11.02;5.28;;;-2.00;99.90;;;;;;4995516;28;20494;-73
2023/01/21 00:09:37;;;;;;;12.23;5.53;;;-2.00;99.90;;;;;;4995076;28;20030;-73
2023/01/21 00:12:03;;;;;;;10.52;5.30;;;-2.00;99.90;;;;;;4977750;28;20460;-73
2023/01/21 00:14:29;;;;;;;12.15;6.20;;;-2.00;99.90;;;;;;4995298;28;20021;-73
2023/01/21 00:16:57;;;;;;;13.00;6.45;;;-2.00;99.90;;;;;;4977275;28;20046;-73
2023/01/21 00:19:28;;;;;;;11.98;5.90;;;-2.00;99.90;;;;;;4977106;28;20522;-72
2023/01/21 00:22:00;;;;;;;10.00;5.63;;;-2.10;99.90;;;;;;4994367;28;20068;-73
2023/01/21 00:24:28;;;;;;;12.13;5.93;;;-2.10;99.90;;;;;;4994298;28;20031;-73
2023/01/21 00:26:54;;;;;;;12.13;7.15;;;-2.00;99.90;;;;;;4976793;28;20391;-73
2023/01/21 00:29:20;;;;;;;13.40;7.18;;;-2.10;99.90;;;;;;4994454;28;20037;-72
2023/01/21 00:31:47;;;;;;;11.32;6.10;;;-2.00;99.90;;;;;;4997570;28;20058;-73
2023/01/21 00:34:12;;;;;;;16.00;7.85;;;-2.00;99.90;;;;;;4994862;28;20089;-73
2023/01/21 00:36:41;;;;;;;13.48;6.57;;;-2.00;99.90;;;;;;4987623;28;20035;-73
2023/01/21 00:39:09;;;;;;;12.38;7.10;;;-2.00;99.90;;;;;;4994776;28;20089;-73
2023/01/21 00:41:38;;;;;;;15.70;6.55;;;-2.00;99.90;;;;;;4994753;28;20026;-73
2023/01/21 00:44:04;;;;;;;17.13;7.20;;;-2.00;99.90;;;;;;4975692;28;20038;-73
2023/01/21 00:46:36;;;;;;;17.05;7.00;;;-2.00;99.90;;;;;;4981355;28;20026;-73
2023/01/21 00:49:07;;;;;;;16.42;7.53;;;-2.00;99.90;;;;;;4976160;28;20518;-73
2023/01/21 00:51:36;;;;;;;12.77;7.45;;;-2.00;99.90;;;;;;4993466;28;20034;-73
2023/01/21 00:54:10;;;;;;;19.60;8.07;;;-2.00;99.90;;;;;;4994447;28;20431;-72
2023/01/21 00:56:36;;;;;;;14.25;7.70;;;-2.10;99.90;;;;;;4994263;28;20114;-73
2023/01/21 00:59:02;;;;;;;15.77;7.43;;;-2.10;99.90;;;;;;4993688;28;20462;-73
2023/01/21 01:01:29;;;;;;;13.88;7.90;;;-2.10;99.90;;;;;;4993911;28;20101;-73
2023/01/21 01:03:54;;;;;;;15.45;8.40;;;-2.10;99.90;;;;;;4976125;28;20025;-73
2023/01/21 01:06:22;;;;;;;18.27;8.65;;;-2.10;99.90;;;;;;4975771;28;20030;-73
2023/01/21 01:08:48;;;;;;;12.93;7.30;;;-2.20;99.90;;;;;;4993128;28;20025;-73
2023/01/21 01:11:21;;;;;;;15.57;7.70;;;-2.20;99.90;;;;;;4993123;28;20026;-73
2023/01/21 01:13:49;;;;;;;16.55;7.85;;;-2.20;99.90;;;;;;4993214;28;20018;-73
2023/01/21 01:16:15;;;;;;;18.08;8.25;;;-2.20;99.90;;;;;;4993455;28;20101;-73
2023/01/21 01:18:42;;;;;;;15.20;7.90;;;-2.20;99.90;;;;;;4993344;28;20468;-73
2023/01/21 01:21:12;;;;;;;16.67;7.63;;;-2.30;99.90;;;;;;4993055;28;20156;-74
2023/01/21 01:23:37;;;;;;;22.45;7.80;;;-2.20;99.90;;;;;;4993074;28;20498;-73
2023/01/21 01:26:06;;;;;;;20.77;8.48;;;-2.30;99.90;;;;;;4993058;28;20027;-73
2023/01/21 01:28:33;;;;;;;16.45;7.90;;;-2.30;99.90;;;;;;4975336;28;20037;-74
2023/01/21 01:30:59;;;;;;;17.08;8.30;;;-2.30;99.90;;;;;;4971304;28;20110;-74
2023/01/21 01:33:25;;;;;;;16.70;8.75;;;-2.30;99.90;;;;;;4993107;28;20025;-73
2023/01/21 01:35:54;;;;;;;15.80;8.15;;;-2.40;99.90;;;;;;4993460;28;20038;-73
2023/01/21 01:38:23;;;;;;;17.35;7.80;;;-2.40;99.90;;;;;;4999630;28;20410;-73
2023/01/21 01:40:51;;;;;;;40.00;10.20;;;-2.50;99.90;;;;;;4981813;28;20525;-74
2023/01/21 01:43:54;;;;;;;17.80;8.35;;;-2.50;99.90;;;;;;4983738;28;20030;-73
2023/01/21 01:46:21;;;;;;;16.67;8.27;;;-2.50;99.90;;;;;;4981983;28;20125;-73
2023/01/21 01:48:52;;;;;;;15.20;8.57;;;-2.50;99.90;;;;;;4981867;28;20049;-73
2023/01/21 01:51:25;;;;;;;15.85;8.05;;;-2.50;99.90;;;;;;4999318;28;20018;-73
2023/01/21 01:53:51;;;;;;;24.75;9.82;;;-2.60;99.90;;;;;;4981789;28;20383;-73
2023/01/21 01:56:17;;;;;;;15.25;7.68;;;-2.60;99.90;;;;;;4981930;28;20386;-72
2023/01/21 01:58:44;;;;;;;16.00;8.68;;;-2.60;99.90;;;;;;4999498;28;20094;-73
2023/01/21 02:01:10;;;;;;;17.40;7.82;;;-2.60;99.90;;;;;;4999475;28;20502;-73
2023/01/21 02:03:43;;;;;;;15.40;8.20;;;-2.60;99.90;;;;;;4999453;28;20064;-73
2023/01/21 02:06:13;;;;;;;15.73;8.68;;;-2.60;99.90;;;;;;4999630;28;20042;-73
2023/01/21 02:08:40;;;;;;;19.33;8.13;;;-2.60;99.90;;;;;;4981900;28;20033;-73
2023/01/21 02:11:17;;;;;;;15.23;8.40;;;-2.60;99.90;;;;;;4999413;28;20037;-73
2023/01/21 02:13:46;;;;;;;17.45;8.50;;;-2.70;99.90;;;;;;4980005;28;20185;-73
2023/01/21 02:16:49;;;;;;;17.13;8.43;;;-2.80;99.90;;;;;;4975202;28;20030;-73
2023/01/21 02:19:33;;;;;;;17.77;8.82;;;-2.70;99.90;;;;;;4999277;28;20483;-73
2023/01/21 02:22:23;;;;;;;17.42;8.63;;;-2.80;99.90;;;;;;4970378;28;20037;-73
2023/01/21 02:25:19;;;;;;;18.17;8.35;;;-2.80;99.90;;;;;;4974482;28;20035;-73
2023/01/21 02:27:56;;;;;;;16.73;8.63;;;-2.90;99.90;;;;;;4981732;28;20391;-74
2023/01/21 02:30:55;;;;;;;19.58;9.55;;;-2.90;99.90;;;;;;4999102;28;20102;-73
2023/01/21 02:33:59;;;;;;;19.98;9.35;;;-2.90;99.90;;;;;;4985813;28;20015;-73
2023/01/21 02:36:40;;;;;;;18.52;9.40;;;-2.90;99.90;;;;;;4986374;28;20041;-75
2023/01/21 02:39:25;;;;;;;20.25;9.50;;;-2.90;99.90;;;;;;4996611;28;20447;-75
2023/01/21 02:42:05;;;;;;;20.27;8.50;;;-2.90;99.90;;;;;;4982556;28;20053;-75
2023/01/21 02:45:10;;;;;;;18.52;9.07;;;-2.90;99.90;;;;;;4981274;28;20034;-74
2023/01/21 02:48:05;;;;;;;22.35;9.07;;;-2.90;99.90;;;;;;4947765;28;20043;-75
2023/01/21 02:50:45;;;;;;;15.18;7.55;;;-2.90;99.90;;;;;;4976465;28;20027;-74
2023/01/21 02:53:32;;;;;;;16.77;8.63;;;-2.90;99.90;;;;;;4981074;28;20015;-74
2023/01/21 02:56:06;;;;;;;20.30;8.98;;;-2.90;99.90;;;;;;4994538;28;20033;-74
2023/01/21 02:58:38;;;;;;;19.15;8.70;;;-3.00;99.90;;;;;;4995735;28;20037;-74
2023/01/21 03:01:16;;;;;;;20.00;9.63;;;-2.90;99.90;;;;;;4995862;28;20030;-73
2023/01/21 03:03:52;;;;;;;17.50;8.07;;;-3.00;99.90;;;;;;4995801;28;20080;-75
2023/01/21 03:06:45;;;;;;;17.17;9.07;;;-3.00;99.90;;;;;;4996206;28;20029;-76
2023/01/21 03:09:10;;;;;;;18.92;8.60;;;-3.10;99.90;;;;;;4978278;28;20030;-75
2023/01/21 03:11:36;;;;;;;18.95;9.25;;;-3.10;99.90;;;;;;4978170;28;20157;-76
2023/01/21 03:17:31;;;;;;;20.40;9.48;;;-3.10;99.90;;;;;;4993783;28;20553;-75
2023/01/21 03:20:11;;;;;;;20.45;9.10;;;-3.20;99.90;;;;;;4977895;28;20407;-75
2023/01/21 03:22:38;;;;;;;20.50;9.43;;;-3.20;99.90;;;;;;4995660;28;20026;-75
2023/01/21 03:25:06;;;;;;;22.70;9.65;;;-3.20;99.90;;;;;;4996015;28;20022;-75
2023/01/21 03:27:33;;;;;;;18.80;8.63;;;-3.20;99.90;;;;;;4978232;28;20495;-76
2023/01/21 03:30:13;;;;;;;20.17;9.00;;;-3.20;99.90;;;;;;4986357;28;20027;-75
2023/01/21 03:32:46;;;;;;;18.90;8.55;;;-3.20;99.90;;;;;;4990516;28;20444;-74
2023/01/21 03:35:17;;;;;;;18.40;8.90;;;-3.20;99.90;;;;;;5014185;23;20483;-76
2023/01/21 03:37:59;;;;;;;25.42;9.10;;;-3.20;99.90;;;;;;4968926;28;20082;-75
2023/01/21 03:40:36;;;;;;;17.48;8.63;;;-3.30;99.90;;;;;;4971859;28;20192;-76
2023/01/21 03:43:02;;;;;;;19.92;9.13;;;-3.30;99.90;;;;;;4964634;28;20027;-76
2023/01/21 03:45:46;;;;;;;22.38;9.07;;;-3.30;99.90;;;;;;4967735;28;20029;-76
2023/01/21 03:48:31;;;;;;;19.13;8.85;;;-3.40;99.90;;;;;;4971916;28;20498;-76
2023/01/21 03:51:05;;;;;;;21.60;8.90;;;-3.40;99.90;;;;;;4956258;28;20074;-75
2023/01/21 03:53:31;;;;;;;16.77;8.95;;;-3.40;99.90;;;;;;4971308;28;20027;-75
2023/01/21 03:55:58;;;;;;;18.27;8.88;;;-3.40;99.90;;;;;;4970926;28;20082;-74
2023/01/21 03:58:27;;;;;;;21.02;9.07;;;-3.40;99.90;;;;;;4971977;28;20053;-75
2023/01/21 04:00:53;;;;;;;19.85;8.48;;;-3.50;99.90;;;;;;4959506;28;20056;-75
2023/01/21 04:03:18;;;;;;;17.83;9.05;;;-3.50;99.90;;;;;;4952141;28;20567;-75
2023/01/21 04:05:47;;;;;;;20.30;8.10;;;-3.50;99.90;;;;;;4970241;28;20050;-75
2023/01/21 04:08:16;;;;;;;19.35;9.05;;;-3.60;99.90;;;;;;4953345;28;20039;-75
2023/01/21 04:10:42;;;;;;;19.73;8.27;;;-3.60;99.90;;;;;;4973353;28;20081;-75
2023/01/21 04:13:07;;;;;;;19.02;9.07;;;-3.60;99.90;;;;;;4968738;28;20027;-75
2023/01/21 04:15:41;;;;;;;17.55;8.38;;;-3.60;99.90;;;;;;4956188;28;20440;-75
2023/01/21 04:18:13;;;;;;;16.50;8.45;;;-3.60;99.90;;;;;;4974049;28;20030;-75
2023/01/21 04:20:39;;;;;;;16.35;8.52;;;-3.60;99.90;;;;;;4971627;28;20055;-75
2023/01/21 04:23:04;;;;;;;20.17;9.30;;;-3.60;99.90;;;;;;4969607;28;20453;-75
2023/01/21 04:25:30;;;;;;;18.00;8.45;;;-3.60;99.90;;;;;;4971522;28;20496;-75
2023/01/21 04:27:55;;;;;;;17.98;7.95;;;-3.60;99.90;;;;;;4973802;28;20059;-75
2023/01/21 04:30:27;;;;;;;21.05;8.93;;;-3.60;99.90;;;;;;4969147;28;20382;-77
2023/01/21 04:32:53;;;;;;;15.90;8.27;;;-3.60;99.90;;;;;;4970177;28;20038;-75
2023/01/21 04:35:18;;;;;;;19.73;8.55;;;-3.50;99.90;;;;;;4957810;28;20483;-76
2023/01/21 04:37:50;;;;;;;19.00;8.25;;;-3.50;99.90;;;;;;4970176;28;20090;-76
2023/01/21 04:40:16;;;;;;;18.10;8.07;;;-3.60;99.90;;;;;;4971826;28;20026;-76
2023/01/21 04:42:41;;;;;;;15.68;8.10;;;-3.60;99.90;;;;;;4951594;28;20542;-76
2023/01/21 04:45:08;;;;;;;18.33;7.93;;;-3.60;99.90;;;;;;4970484;28;20026;-76
2023/01/21 04:47:33;;;;;;;15.70;8.52;;;-3.60;99.90;;;;;;4974145;28;20454;-76
2023/01/21 04:50:00;;;;;;;15.70;7.68;;;-3.60;99.90;;;;;;4956479;28;20118;-76
2023/01/21 04:52:26;;;;;;;20.00;8.60;;;-3.70;99.90;;;;;;4948908;28;20399;-75
2023/01/21 04:54:52;;;;;;;18.48;8.93;;;-3.70;99.90;;;;;;4968252;28;20019;-75
2023/01/21 04:57:23;;;;;;;18.08;8.40;;;-3.70;99.90;;;;;;4969784;28;20436;-75
2023/01/21 04:59:49;;;;;;;20.25;8.10;;;-3.70;99.90;;;;;;4971817;28;20050;-76
2023/01/21 05:02:21;;;;;;;18.73;7.80;;;-3.70;99.90;;;;;;4966450;28;20027;-76
2023/01/21 05:04:47;;;;;;;19.50;8.30;;;-3.70;99.90;;;;;;4966963;28;20031;-75
2023/01/21 05:07:13;;;;;;;21.45;8.43;;;-3.70;99.90;;;;;;4970346;28;20035;-75
2023/01/21 05:09:42;;;;;;;19.30;8.38;;;-3.70;99.90;;;;;;4950989;28;20381;-75
2023/01/21 05:12:11;;;;;;;18.38;8.63;;;-3.70;99.90;;;;;;4967760;28;20038;-77
2023/01/21 05:14:39;;;;;;;16.13;7.80;;;-3.70;99.90;;;;;;4953228;28;20061;-77
2023/01/21 05:17:05;;;;;;;19.00;8.13;;;-3.70;99.90;;;;;;4968173;28;20031;-76
2023/01/21 05:19:36;;;;;;;18.10;8.45;;;-3.70;99.90;;;;;;4966957;28;20038;-77
2023/01/21 05:22:02;;;;;;;16.35;8.15;;;-3.70;99.90;;;;;;4976140;28;20026;-76
2023/01/21 05:24:27;;;;;;;19.25;7.93;;;-3.70;99.90;;;;;;4975085;28;20753;-76
2023/01/21 05:26:53;;;;;;;16.88;7.95;;;-3.80;99.90;;;;;;4954187;28;20074;-76
2023/01/21 05:29:19;;;;;;;20.40;8.90;;;-3.80;99.90;;;;;;4968067;28;20034;-75
2023/01/21 05:31:44;;;;;;;16.35;8.13;;;-3.80;99.90;;;;;;4970576;28;20027;-76
2023/01/21 05:34:11;;;;;;;16.27;8.05;;;-3.80;99.90;;;;;;4968611;28;20081;-76
2023/01/21 05:36:42;;;;;;;19.92;8.27;;;-3.80;99.90;;;;;;4957046;28;20091;-77
2023/01/21 05:39:14;;;;;;;19.17;9.38;;;-3.90;99.90;;;;;;4969544;28;20105;-77
2023/01/21 05:41:40;;;;;;;20.98;8.52;;;-3.80;99.90;;;;;;4969515;28;20038;-77
2023/01/21 05:44:06;;;;;;;17.35;8.10;;;-3.80;99.90;;;;;;4970823;28;20045;-77
2023/01/21 05:46:35;;;;;;;15.60;7.78;;;-3.90;99.90;;;;;;4954879;28;20039;-77
2023/01/21 05:49:01;;;;;;;19.05;8.35;;;-3.80;99.90;;;;;;4956698;28;20026;-77
2023/01/21 05:51:32;;;;;;;19.38;8.35;;;-3.90;99.90;;;;;;4970163;28;20035;-76
2023/01/21 05:54:01;;;;;;;16.75;7.82;;;-3.90;99.90;;;;;;4956027;28;20030;-77
2023/01/21 05:56:26;;;;;;;18.17;8.27;;;-4.00;99.90;;;;;;4955934;28;20110;-77
2023/01/21 05:58:52;;;;;;;20.75;7.88;;;-4.00;99.90;;;;;;4973730;28;20022;-77
2023/01/21 06:01:17;;;;;;;19.20;9.05;;;-4.00;99.90;;;;;;4968888;28;20030;-76
2023/01/21 06:03:43;;;;;;;17.00;8.40;;;-4.10;99.90;;;;;;4968299;28;20053;-75
2023/01/21 06:06:12;;;;;;;15.65;7.43;;;-4.10;99.90;;;;;;4968757;28;20037;-75
2023/01/21 06:08:40;;;;;;;16.95;8.43;;;-4.00;99.90;;;;;;4954165;28;20522;-75
2023/01/21 06:11:06;;;;;;;18.02;8.27;;;-4.10;99.90;;;;;;4969917;28;20030;-76
2023/01/21 06:13:32;;;;;;;20.13;9.40;;;-4.00;99.90;;;;;;4975283;28;20408;-76
2023/01/21 06:15:57;;;;;;;18.83;7.75;;;-4.10;99.90;;;;;;4975525;28;20031;-76
2023/01/21 06:18:23;;;;;;;15.95;7.65;;;-4.10;99.90;;;;;;4972889;28;20344;-72
2023/01/21 06:20:59;;;;;;;18.60;8.20;;;-4.20;99.90;;;;;;4973236;28;20089;-72
2023/01/21 06:23:27;;;;;;;19.48;7.80;;;-4.30;99.90;;;;;;4979552;28;20035;-71
2023/01/21 06:26:00;;;;;;;16.35;7.85;;;-4.20;99.90;;;;;;4976482;28;20023;-71
2023/01/21 06:28:26;;;;;;;14.23;7.60;;;-4.30;99.90;;;;;;4973947;28;20047;-71
2023/01/21 06:30:55;;;;;;;17.90;7.88;;;-4.30;99.90;;;;;;4973652;28;20023;-71
2023/01/21 06:33:20;;;;;;;16.45;7.93;;;-4.20;99.90;;;;;;4972666;28;20387;-76
2023/01/21 06:35:46;;;;;;;20.35;9.38;;;-4.10;99.90;;;;;;4958358;28;20022;-76
2023/01/21 06:38:15;;;;;;;19.17;8.13;;;-4.10;99.90;;;;;;4955207;28;20039;-75
2023/01/21 06:40:41;;;;;;;19.92;8.13;;;-4.10;99.90;;;;;;4957457;28;20043;-75
2023/01/21 06:43:10;;;;;;;20.17;8.98;;;-4.00;99.90;;;;;;4976881;28;20039;-76
2023/01/21 06:45:38;;;;;;;16.98;7.80;;;-4.00;99.90;;;;;;4971207;28;20035;-76
2023/01/21 06:48:11;;;;;;;19.90;8.70;;;-4.10;99.90;;;;;;4973310;28;20522;-75
2023/01/21 06:50:43;;;;;;;16.65;8.07;;;-4.10;99.90;;;;;;4973651;28;20495;-75
2023/01/21 06:53:08;;;;;;;21.00;8.60;;;-4.10;99.90;;;;;;4956951;28;20373;-76
2023/01/21 06:55:43;;;;;;;19.38;9.45;;;-4.20;99.90;;;;;;4973639;28;20045;-75
2023/01/21 06:58:12;;;;;;;20.45;8.65;;;-4.20;99.90;;;;;;4950713;28;20031;-76
2023/01/21 07:00:38;;;;;;;19.15;8.57;;;-4.20;99.90;;;;;;4970977;28;20031;-76
2023/01/21 07:03:03;;;;;;;20.25;8.80;;;-4.20;99.90;;;;;;4976033;28;20295;-76
2023/01/21 07:05:29;;;;;;;18.75;8.63;;;-4.20;99.90;;;;;;4958383;28;20037;-76
2023/01/21 07:07:56;;;;;;;16.85;9.07;;;-4.20;99.90;;;;;;4977948;28;20518;-78
2023/01/21 07:10:25;;;;;;;20.38;8.10;;;-4.20;99.90;;;;;;4973485;28;20035;-76
2023/01/21 07:12:56;;;;;;;17.05;8.23;;;-4.20;99.90;;;;;;4974453;28;20026;-75
2023/01/21 07:15:22;;;;;;;23.95;8.90;;;-4.20;99.90;;;;;;4971611;28;20034;-76
2023/01/21 07:17:48;;;;;;;18.38;8.00;;;-4.10;99.90;;;;;;4959478;28;20027;-77
2023/01/21 07:20:14;;;;;;;17.80;7.65;;;-4.10;99.90;;;;;;4972357;28;20133;-78
2023/01/21 07:22:42;;;;;;;18.60;8.10;;;-4.10;99.90;;;;;;4973591;28;20173;-77
2023/01/21 07:25:08;;;;;;;18.75;8.45;;;-4.10;99.90;;;;;;4960008;28;20491;-76
2023/01/21 07:27:40;;;;;;;20.90;7.82;;;-4.10;99.90;;;;;;4979875;28;20130;-77
2023/01/21 07:30:23;;;;;;;17.30;8.50;;;-4.00;99.90;;;;;;4965503;28;20027;-75
2023/01/21 07:32:49;;;;;;;18.00;7.40;;;-4.00;99.90;;;;;;4971347;28;20049;-76
2023/01/21 07:35:15;;;;;;;18.50;8.88;;;-3.90;99.90;;;;;;4970133;28;20023;-76
2023/01/21 07:37:43;;;;;;;20.30;9.20;;;-3.90;99.90;;;;;;4969850;28;20031;-76
2023/01/21 07:40:09;;;;;;;16.55;7.97;;;-3.80;99.90;;;;;;4973156;28;20150;-77
2023/01/21 07:42:35;;;;;;;20.40;9.98;;;-3.70;99.90;;;;;;4971799;28;20027;-77
2023/01/21 07:45:02;;;;;;;19.15;9.48;;;-3.70;99.90;;;;;;4974086;28;20043;-77
2023/01/21 07:47:28;;;;;;;26.25;10.25;;;-3.60;99.90;;;;;;4979254;28;20030;-76
2023/01/21 07:49:54;;;;;;;20.73;9.30;;;-3.60;99.90;;;;;;4954235;28;20026;-78
2023/01/21 07:52:19;;;;;;;19.15;8.20;;;-3.60;99.90;;;;;;4970745;28;20031;-77
2023/01/21 07:54:46;;;;;;;25.60;9.95;;;-3.60;99.90;;;;;;4974466;28;20049;-78
2023/01/21 07:57:14;;;;;;;26.33;10.75;;;-3.50;99.90;;;;;;4973408;28;20035;-78
2023/01/21 07:59:40;;;;;;;22.20;10.30;;;-3.60;99.90;;;;;;4969231;28;20110;-79
2023/01/21 08:02:06;;;;;;;19.90;8.80;;;-3.50;99.90;;;;;;4974771;28;20022;-78
2023/01/21 08:04:32;;;;;;;21.88;10.68;;;-3.50;99.90;;;;;;4973569;28;20575;-77
2023/01/21 08:06:57;;;;;;;21.63;9.27;;;-3.50;99.90;;;;;;4957082;28;20046;-78
2023/01/21 08:09:26;;;;;;;25.90;10.13;;;-3.40;99.90;;;;;;4973631;28;20101;-78
2023/01/21 08:11:51;;;;;;;16.38;9.57;;;-3.40;99.90;;;;;;4968996;28;20049;-77
2023/01/21 08:14:17;;;;;;;19.25;8.98;;;-3.30;99.90;;;;;;4958442;28;20030;-79
2023/01/21 08:16:48;;;;;;;21.60;10.13;;;-3.20;99.90;;;;;;4960648;28;20415;-78
2023/01/21 08:19:14;;;;;;;16.65;9.73;;;-3.10;99.90;;;;;;4972576;28;20026;-78
2023/01/21 08:21:39;;;;;;;22.67;9.65;;;-3.00;99.90;;;;;;4970344;28;20590;-77
2023/01/21 08:24:11;;;;;;;42.92;12.77;;;-2.90;99.90;;;;;;4970173;28;20022;-78
2023/01/21 08:26:39;;;;;;;24.77;10.40;;;-3.00;99.90;;;;;;4974155;28;20066;-78
2023/01/21 08:29:11;;;;;;;20.75;10.18;;;-2.90;99.90;;;;;;4977909;28;20034;-77
2023/01/21 08:31:37;;;;;;;20.90;10.93;;;-2.90;99.90;;;;;;4968900;28;20448;-78
2023/01/21 08:34:05;;;;;;;27.73;11.65;;;-2.90;99.90;;;;;;4976315;28;20101;-78
2023/01/21 08:36:31;;;;;;;26.42;11.48;;;-2.90;99.90;;;;;;4952611;28;20034;-78
2023/01/21 08:38:57;;;;;;;19.38;10.07;;;-2.80;99.90;;;;;;4975869;28;20121;-78
2023/01/21 08:41:24;;;;;;;27.48;11.30;;;-2.80;99.90;;;;;;4970564;28;20484;-77
2023/01/21 08:43:49;;;;;;;27.48;11.20;;;-2.70;99.90;;;;;;4974548;28;20023;-76
2023/01/21 08:46:15;;;;;;;24.98;11.55;;;-2.70;99.90;;;;;;4971228;28;20050;-77
2023/01/21 08:48:41;;;;;;;22.30;12.15;;;-2.60;99.90;;;;;;4966504;28;20034;-76
2023/01/21 08:51:06;;;;;;;25.63;12.85;;;-2.60;99.90;;;;;;4966874;28;20043;-77
2023/01/21 08:53:32;;;;;;;29.13;12.07;;;-2.50;99.90;;;;;;4971002;28;20066;-77
2023/01/21 08:55:59;;;;;;;32.33;12.32;;;-2.60;99.90;;;;;;4958426;28;20130;-77
2023/01/21 08:58:25;;;;;;;32.50;13.95;;;-2.60;99.90;;;;;;4969751;28;20033;-77
2023/01/21 09:00:50;;;;;;;30.58;13.90;;;-2.50;99.90;;;;;;4970569;28;20034;-77
2023/01/21 09:03:18;;;;;;;34.58;14.20;;;-2.50;99.90;;;;;;4971052;28;20055;-77
2023/01/21 09:05:43;;;;;;;30.80;13.52;;;-2.50;99.90;;;;;;4970292;28;20185;-77
2023/01/21 09:08:12;;;;;;;35.63;13.65;;;-2.50;99.90;;;;;;4977821;28;20535;-78
2023/01/21 09:11:00;;;;;;;29.63;13.13;;;-2.40;99.90;;;;;;4964414;28;20528;-77
2023/01/21 09:13:34;;;;;;;27.20;12.95;;;-2.40;99.90;;;;;;4966751;28;20030;-78
2023/01/21 09:16:17;;;;;;;24.55;12.77;;;-2.40;99.90;;;;;;4954716;28;20291;-77
2023/01/21 09:18:48;;;;;;;24.50;11.82;;;-2.30;99.90;;;;;;4974436;28;20132;-77
2023/01/21 09:21:14;;;;;;;27.52;12.50;;;-2.30;99.90;;;;;;4956661;28;20443;-77
2023/01/21 09:23:43;;;;;;;29.23;13.95;;;-2.20;99.90;;;;;;4952492;28;20031;-77
2023/01/21 09:26:16;;;;;;;29.20;13.43;;;-2.20;99.90;;;;;;4973573;28;20038;-77
2023/01/21 09:28:43;;;;;;;25.92;10.95;;;-2.10;99.90;;;;;;4973188;28;20351;-77
2023/01/21 09:31:17;;;;;;;27.77;13.57;;;-2.10;99.90;;;;;;4979879;28;20030;-77
2023/01/21 09:33:55;;;;;;;31.52;12.52;;;-2.00;99.90;;;;;;4974555;28;20061;-77
2023/01/21 09:36:24;;;;;;;31.30;12.77;;;-2.00;99.90;;;;;;4987259;23;20054;-76
2023/01/21 09:38:51;;;;;;;28.85;13.30;;;-1.90;99.90;;;;;;4976313;28;20037;-76
2023/01/21 09:41:35;;;;;;;27.23;13.77;;;-1.80;99.90;;;;;;4992910;28;20123;-76
2023/01/21 09:44:22;;;;;;;29.55;13.82;;;-1.80;99.90;;;;;;4971217;28;20073;-75
2023/01/21 09:46:50;;;;;;;33.80;14.25;;;-1.80;99.90;;;;;;4993422;28;20038;-75
2023/01/21 09:49:24;;;;;;;26.88;13.48;;;-1.70;99.90;;;;;;4989589;28;20038;-76
2023/01/21 09:52:26;;;;;;;31.40;13.80;;;-1.60;99.90;;;;;;4967707;28;20061;-76
2023/01/21 09:55:00;;;;;;;31.65;14.77;;;-1.60;99.90;;;;;;4990730;28;20029;-75
2023/01/21 09:57:53;;;;;;;28.90;13.82;;;-1.60;99.90;;;;;;4999661;28;20032;-77
2023/01/21 10:00:35;;;;;;;32.75;14.20;;;-1.60;99.90;;;;;;4969724;28;20034;-76
2023/01/21 10:03:23;;;;;;;29.25;13.77;;;-1.60;99.90;;;;;;4993809;28;20114;-75
2023/01/21 10:05:51;;;;;;;32.33;14.02;;;-1.60;99.90;;;;;;4990954;28;20453;-73
2023/01/21 10:08:50;;;;;;;30.75;14.35;;;-1.50;99.90;;;;;;4976130;28;20026;-73
2023/01/21 10:11:51;;;;;;;32.45;13.93;;;-1.50;99.90;;;;;;4958786;28;20049;-73
2023/01/21 10:14:56;;;;;;;32.03;15.00;;;-1.50;99.90;;;;;;4942321;28;20125;-74
2023/01/21 10:17:49;;;;;;;33.72;14.77;;;-1.40;99.90;;;;;;4989493;28;20491;-74
2023/01/21 10:20:29;;;;;;;33.50;16.05;;;-1.40;99.90;;;;;;4991339;28;20018;-75
2023/01/21 10:23:15;;;;;;;37.88;16.20;;;-1.40;99.90;;;;;;4991686;28;20360;-75
2023/01/21 10:25:48;;;;;;;40.80;16.08;;;-1.40;99.90;;;;;;4994431;28;20026;-73
2023/01/21 10:28:26;;;;;;;33.87;15.77;;;-1.40;99.90;;;;;;4989816;28;20054;-76
2023/01/21 10:31:05;;;;;;;33.38;15.27;;;-1.40;99.90;;;;;;4990717;28;20026;-76
2023/01/21 10:33:32;;;;;;;33.85;15.93;;;-1.40;99.90;;;;;;4997861;28;20019;-75
2023/01/21 10:36:04;;;;;;;37.35;18.83;;;-1.30;99.90;;;;;;4969201;28;20125;-76
2023/01/21 10:39:00;;;;;;;37.42;16.42;;;-1.30;99.90;;;;;;4987729;28;20442;-75
2023/01/21 10:41:28;;;;;;;36.47;16.40;;;-1.30;99.90;;;;;;4992933;28;20042;-75
2023/01/21 10:44:24;;;;;;;36.92;15.90;;;-1.20;99.90;;;;;;4990244;28;20078;-76
2023/01/21 10:47:21;;;;;;;36.17;16.80;;;-1.30;99.90;;;;;;4976003;28;20474;-76
2023/01/21 10:50:14;;;;;;;35.70;15.55;;;-1.30;99.90;;;;;;4983896;28;20085;-75
2023/01/21 10:52:48;;;;;;;36.08;16.40;;;-1.40;99.90;;;;;;4988979;28;20105;-75
2023/01/21 10:55:29;;;;;;;36.80;17.83;;;-1.40;99.90;;;;;;4979099;28;20041;-76
2023/01/21 10:58:08;;;;;;;35.65;17.48;;;-1.40;99.90;;;;;;4993865;28;20026;-75
2023/01/21 11:00:46;;;;;;;37.85;16.30;;;-1.40;99.90;;;;;;4991434;28;20049;-75
2023/01/21 11:03:37;;;;;;;32.63;15.98;;;-1.40;99.90;;;;;;4983566;28;20034;-75
2023/01/21 11:06:07;;;;;;;38.22;17.35;;;-1.50;99.90;;;;;;4988170;28;20096;-75
2023/01/21 11:08:33;;;;;;;44.95;20.25;;;-1.50;99.90;;;;;;4988450;28;20622;-74
2023/01/21 11:11:00;;;;;;;38.42;17.75;;;-1.40;99.90;;;;;;4972376;28;20422;-75
2023/01/21 11:13:26;;;;;;;33.95;17.05;;;-1.50;99.90;;;;;;4993511;28;20029;-75
2023/01/21 11:15:56;;;;;;;37.35;17.17;;;-1.50;99.90;;;;;;4988118;28;20023;-75
2023/01/21 11:18:40;;;;;;;44.08;20.08;;;-1.50;99.90;;;;;;4943262;28;20113;-75
2023/01/21 11:21:21;;;;;;;43.00;18.77;;;-1.50;99.90;;;;;;4967354;28;20035;-76
2023/01/21 11:24:18;;;;;;;48.75;18.65;;;-1.60;99.90;;;;;;4967885;28;20114;-76
2023/01/21 11:26:59;;;;;;;35.45;17.42;;;-1.60;99.90;;;;;;4953772;28;20043;-75
2023/01/21 11:29:43;;;;;;;39.35;18.23;;;-1.60;99.90;;;;;;4952643;28;20400;-76
2023/01/21 11:32:30;;;;;;;35.88;17.70;;;-1.60;99.90;;;;;;4966259;28;20579;-75
2023/01/21 11:35:01;;;;;;;41.78;18.92;;;-1.50;99.90;;;;;;4965623;28;20282;-75
2023/01/21 11:37:29;;;;;;;38.00;17.35;;;-1.50;99.90;;;;;;4951913;28;20035;-75
2023/01/21 11:39:57;;;;;;;40.85;17.95;;;-1.50;99.90;;;;;;4971552;28;20042;-75
2023/01/21 11:42:24;;;;;;;39.22;18.73;;;-1.50;99.90;;;;;;4981024;28;20039;-75
2023/01/21 11:45:22;;;;;;;39.17;19.70;;;-1.40;99.90;;;;;;4953307;28;20031;-76
2023/01/21 11:47:50;;;;;;;41.08;19.65;;;-1.40;99.90;;;;;;4969648;28;20058;-75
2023/01/21 11:50:33;;;;;;;38.58;17.95;;;-1.40;99.90;;;;;;4970373;28;20400;-75
2023/01/21 11:53:18;;;;;;;37.42;17.50;;;-1.40;99.90;;;;;;4974766;28;20516;-76
2023/01/21 11:55:48;;;;;;;41.00;18.30;;;-1.40;99.90;;;;;;4971833;28;20395;-75
2023/01/21 11:58:35;;;;;;;42.97;19.70;;;-1.40;99.90;;;;;;4966041;28;20479;-75
2023/01/21 12:01:21;;;;;;;39.10;17.92;;;-1.40;99.90;;;;;;4973174;28;20491;-75
2023/01/21 12:03:51;;;;;;;48.97;20.13;;;-1.40;99.90;;;;;;4954840;28;20042;-75
2023/01/21 12:06:24;;;;;;;39.90;18.00;;;-1.30;99.90;;;;;;4969076;28;20027;-75
2023/01/21 12:08:53;;;;;;;30.90;13.68;;;-1.30;99.90;;;;;;4954697;28;20506;-75
2023/01/21 12:11:22;;;;;;;45.83;18.25;;;-1.30;99.90;;;;;;4971897;28;20089;-75
2023/01/21 12:14:17;;;;;;;35.95;16.17;;;-1.30;99.90;;;;;;4959818;28;20086;-75
2023/01/21 12:17:03;;;;;;;40.67;18.50;;;-1.20;99.90;;;;;;4968596;28;20121;-74
2023/01/21 12:19:58;;;;;;;41.17;19.65;;;-1.20;99.90;;;;;;4971972;28;20035;-74
2023/01/21 12:22:54;;;;;;;37.45;17.08;;;-1.30;99.90;;;;;;4943969;28;20484;-75
2023/01/21 12:25:23;;;;;;;33.28;16.77;;;-1.30;99.90;;;;;;4968407;28;20031;-75
2023/01/21 12:28:04;;;;;;;39.35;18.15;;;-1.30;99.90;;;;;;4948242;28;20027;-75
2023/01/21 12:31:28;;;;;;;39.97;19.40;;;-1.30;99.90;;;;;;4951971;28;20018;-75
2023/01/21 12:33:57;;;;;;;43.40;19.55;;;-1.30;99.90;;;;;;4903723;28;20032;-74
2023/01/21 12:36:41;;;;;;;44.47;19.48;;;-1.30;99.90;;;;;;4968479;28;20102;-75
2023/01/21 12:39:21;;;;;;;;;;;-1.30;99.90;;;;;;4971384;28;20072;-74
2023/01/21 12:42:09;;;;;;;44.45;19.17;;;-1.30;99.90;;;;;;4952442;28;20505;-74
2023/01/21 12:44:44;;;;;;;44.20;20.13;;;-1.20;99.90;;;;;;4950961;28;20031;-75
2023/01/21 12:47:43;;;;;;;41.85;19.50;;;-1.20;99.90;;;;;;4965923;28;20370;-74
2023/01/21 12:50:25;;;;;;;43.70;19.70;;;-1.10;99.90;;;;;;4959797;28;20047;-75
2023/01/21 12:52:58;;;;;;;41.33;18.65;;;-1.10;99.90;;;;;;4961489;28;20540;-74
2023/01/21 12:55:53;;;;;;;44.50;20.25;;;-1.00;99.90;;;;;;4969566;28;20031;-74
2023/01/21 12:58:37;;;;;;;46.50;19.02;;;-1.00;99.90;;;;;;4963788;28;20039;-75
2023/01/21 13:01:10;;;;;;;37.78;18.48;;;-1.00;99.90;;;;;;4967446;28;20081;-75
2023/01/21 13:04:02;;;;;;;38.97;18.45;;;-1.00;99.90;;;;;;4963155;28;20046;-74
2023/01/21 13:06:49;;;;;;;47.35;21.52;;;-1.00;99.90;;;;;;4969889;28;20035;-74